createdAt,value
2022-09-16T00:00:45.766Z,0.50
2022-09-16T00:03:13.672Z,0.50
2022-09-16T00:05:42.461Z,0.73
2022-09-16T00:08:09.700Z,0.55
2022-09-16T00:10:36.944Z,0.60
2022-09-16T00:13:04.814Z,0.50
2022-09-16T00:15:31.903Z,0.70
2022-09-16T00:17:59.750Z,0.60
2022-09-16T00:20:26.946Z,0.70
2022-09-16T00:22:54.113Z,0.73
2022-09-16T00:25:20.797Z,0.60
2022-09-16T00:27:50.208Z,0.52
2022-09-16T00:30:16.927Z,0.70
2022-09-16T00:32:44.378Z,0.65
2022-09-16T00:35:11.016Z,0.60
2022-09-16T00:37:37.612Z,0.65
2022-09-16T00:40:04.861Z,1.00
2022-09-16T00:42:31.559Z,2.45
2022-09-16T00:45:03.266Z,1.00
2022-09-16T00:47:40.914Z,0.90
2022-09-16T00:50:33.673Z,0.60
2022-09-16T00:53:00.833Z,0.60
2022-09-16T00:55:31.725Z,0.60
2022-09-16T00:58:06.956Z,0.60
2022-09-16T01:00:33.599Z,0.60
2022-09-16T01:03:00.202Z,0.60
2022-09-16T01:05:27.954Z,0.57
2022-09-16T01:07:55.159Z,0.70
2022-09-16T01:10:24.491Z,0.50
2022-09-16T01:13:00.771Z,0.85
2022-09-16T01:15:48.673Z,0.50
2022-09-16T01:18:30.586Z,0.50
2022-09-16T01:21:06.243Z,0.60
2022-09-16T01:23:54.035Z,0.52
2022-09-16T01:27:08.647Z,0.60
2022-09-16T01:29:58.230Z,0.60
2022-09-16T01:32:36.400Z,0.50
2022-09-16T01:35:33.950Z,0.50
2022-09-16T01:38:36.560Z,0.50
2022-09-16T01:41:23.551Z,0.68
2022-09-16T01:43:57.780Z,0.60
2022-09-16T01:46:36.415Z,0.65
2022-09-16T01:49:16.113Z,0.60
2022-09-16T01:52:06.532Z,0.60
2022-09-16T01:54:45.833Z,0.73
2022-09-16T01:57:38.252Z,0.63
2022-09-16T02:00:14.381Z,0.50
2022-09-16T02:02:48.018Z,0.50
2022-09-16T02:05:24.695Z,0.60
2022-09-16T02:07:58.902Z,0.50
2022-09-16T02:10:33.085Z,0.50
2022-09-16T02:13:06.704Z,0.43
2022-09-16T02:15:34.336Z,0.50
2022-09-16T02:18:13.478Z,0.60
2022-09-16T02:20:46.479Z,0.60
2022-09-16T02:23:22.740Z,0.43
2022-09-16T02:25:50.838Z,0.50
2022-09-16T02:28:21.884Z,0.60
2022-09-16T02:30:55.397Z,0.90
2022-09-16T02:33:25.287Z,0.57
2022-09-16T02:35:55.692Z,0.50
2022-09-16T02:38:33.096Z,0.50
2022-09-16T02:41:01.424Z,0.40
2022-09-16T02:43:28.802Z,0.50
2022-09-16T02:46:23.313Z,0.55
2022-09-16T02:48:55.795Z,0.50
2022-09-16T02:51:52.812Z,0.70
2022-09-16T02:54:34.332Z,0.60
2022-09-16T02:57:00.976Z,0.63
2022-09-16T02:59:27.664Z,0.55
2022-09-16T03:01:55.010Z,0.50
2022-09-16T03:04:21.955Z,0.50
2022-09-16T03:09:36.667Z,0.50
2022-09-16T03:12:22.589Z,0.55
2022-09-16T03:15:26.793Z,0.57
2022-09-16T03:18:02.515Z,0.60
2022-09-16T03:20:55.578Z,0.50
2022-09-16T03:23:44.954Z,0.70
2022-09-16T03:26:45.687Z,0.80
2022-09-16T03:30:00.808Z,0.60
2022-09-16T03:32:39.153Z,0.70
2022-09-16T03:35:14.816Z,0.50
2022-09-16T03:37:43.902Z,0.70
2022-09-16T03:40:14.704Z,0.82
2022-09-16T03:42:44.569Z,0.50
2022-09-16T03:45:16.492Z,0.47
2022-09-16T03:47:44.828Z,0.70
2022-09-16T03:50:11.468Z,1.38
2022-09-16T03:52:39.439Z,0.95
2022-09-16T03:55:07.629Z,0.80
2022-09-16T03:57:34.706Z,0.80
2022-09-16T04:00:01.422Z,0.82
2022-09-16T04:02:28.224Z,0.90
2022-09-16T04:04:54.848Z,0.90
2022-09-16T04:07:21.418Z,1.42
2022-09-16T04:09:47.992Z,1.10
2022-09-16T04:12:14.895Z,0.88
2022-09-16T04:14:41.556Z,1.20
2022-09-16T04:17:08.270Z,1.45
2022-09-16T04:22:19.122Z,1.63
2022-09-16T04:24:45.715Z,1.77
2022-09-16T04:27:15.475Z,2.60
2022-09-16T04:29:42.540Z,1.63
2022-09-16T04:32:09.078Z,1.00
2022-09-16T04:34:35.698Z,0.88
2022-09-16T04:37:02.264Z,1.13
2022-09-16T04:39:29.203Z,1.30
2022-09-16T04:41:55.936Z,1.88
2022-09-16T04:44:22.586Z,1.83
2022-09-16T04:46:49.403Z,2.35
2022-09-16T04:49:16.056Z,2.60
2022-09-16T04:51:42.593Z,1.77
2022-09-16T04:54:09.686Z,1.50
2022-09-16T04:56:36.305Z,1.42
2022-09-16T04:59:05.506Z,1.60
2022-09-16T05:01:38.432Z,2.63
2022-09-16T05:04:07.475Z,2.63
2022-09-16T05:06:36.927Z,1.75
2022-09-16T05:09:03.866Z,3.00
2022-09-16T05:11:36.894Z,3.10
2022-09-16T05:14:06.034Z,2.35
2022-09-16T05:16:33.167Z,3.10
2022-09-16T05:19:01.667Z,2.63
2022-09-16T05:21:28.900Z,3.90
2022-09-16T05:23:59.690Z,4.13
2022-09-16T05:26:28.738Z,3.45
2022-09-16T05:28:55.687Z,3.28
2022-09-16T05:31:26.536Z,4.15
2022-09-16T05:34:05.885Z,4.20
2022-09-16T05:36:35.233Z,4.32
2022-09-16T05:39:22.228Z,2.88
2022-09-16T05:41:50.143Z,3.38
2022-09-16T05:44:16.770Z,3.22
2022-09-16T05:46:43.963Z,1.70
2022-09-16T05:49:11.364Z,3.00
2022-09-16T05:51:39.520Z,3.67
2022-09-16T05:54:06.247Z,4.10
2022-09-16T05:56:33.387Z,3.30
2022-09-16T05:59:01.037Z,3.45
2022-09-16T06:01:31.331Z,4.00
2022-09-16T06:04:00.145Z,4.20
2022-09-16T06:06:44.922Z,3.67
2022-09-16T06:09:13.044Z,1.40
2022-09-16T06:11:43.181Z,1.92
2022-09-16T06:14:10.318Z,0.90
2022-09-16T06:16:37.262Z,1.15
2022-09-16T06:19:07.146Z,1.33
2022-09-16T06:21:33.748Z,0.80
2022-09-16T06:24:00.306Z,0.68
2022-09-16T06:26:27.516Z,0.50
2022-09-16T06:28:54.778Z,0.68
2022-09-16T06:31:26.520Z,0.88
2022-09-16T06:33:54.157Z,0.68
2022-09-16T06:36:26.720Z,0.90
2022-09-16T06:38:53.718Z,1.58
2022-09-16T06:41:21.796Z,1.10
2022-09-16T06:43:51.169Z,0.82
2022-09-16T06:46:24.041Z,1.10
2022-09-16T06:48:53.068Z,1.15
2022-09-16T06:51:27.811Z,0.60
2022-09-16T06:53:59.131Z,0.60
2022-09-16T06:56:25.701Z,0.88
2022-09-16T06:58:55.982Z,0.82
2022-09-16T07:01:30.437Z,0.50
2022-09-16T07:03:58.782Z,0.90
2022-09-16T07:09:16.497Z,0.60
2022-09-16T07:11:43.128Z,0.75
2022-09-16T07:14:09.850Z,0.68
2022-09-16T07:16:36.983Z,0.70
2022-09-16T07:19:04.378Z,0.90
2022-09-16T07:21:31.313Z,1.70
2022-09-16T07:24:00.287Z,0.70
2022-09-16T07:26:31.180Z,0.50
2022-09-16T07:29:02.056Z,0.70
2022-09-16T07:31:31.799Z,0.82
2022-09-16T07:34:03.717Z,0.60
2022-09-16T07:36:40.365Z,0.77
2022-09-16T07:39:07.415Z,0.88
2022-09-16T07:41:36.590Z,0.80
2022-09-16T07:44:05.843Z,0.93
2022-09-16T07:46:35.143Z,0.60
2022-09-16T07:49:03.424Z,0.65
2022-09-16T07:51:31.261Z,0.50
2022-09-16T07:54:02.272Z,0.60
2022-09-16T07:56:30.743Z,0.60
2022-09-16T07:58:58.073Z,0.90
2022-09-16T08:01:25.042Z,0.60
2022-09-16T08:03:51.839Z,0.80
2022-09-16T08:06:22.295Z,0.60
2022-09-16T08:08:51.407Z,0.80
2022-09-16T08:11:18.031Z,0.50
2022-09-16T08:13:46.407Z,0.75
2022-09-16T08:16:19.939Z,0.60
2022-09-16T08:18:48.282Z,0.60
2022-09-16T08:21:18.276Z,0.52
2022-09-16T08:23:45.731Z,0.52
2022-09-16T08:26:14.207Z,0.70
2022-09-16T08:28:57.498Z,0.60
2022-09-16T08:31:29.502Z,0.70
2022-09-16T08:33:56.455Z,0.75
2022-09-16T08:36:25.210Z,0.85
2022-09-16T08:38:55.678Z,0.70
2022-09-16T08:41:25.367Z,0.60
2022-09-16T08:44:03.709Z,1.42
2022-09-16T08:46:52.981Z,0.75
2022-09-16T08:49:37.226Z,0.93
2022-09-16T08:52:15.442Z,0.70
2022-09-16T08:54:49.776Z,0.60
2022-09-16T08:57:21.423Z,4.35
2022-09-16T09:00:04.556Z,0.68
2022-09-16T09:02:54.733Z,0.90
2022-09-16T09:05:32.557Z,0.90
2022-09-16T09:08:01.784Z,0.93
2022-09-16T09:10:58.069Z,1.73
2022-09-16T09:13:47.057Z,0.70
2022-09-16T09:16:25.569Z,0.93
2022-09-16T09:19:24.613Z,1.15
2022-09-16T09:22:19.494Z,0.70
2022-09-16T09:25:07.388Z,0.80
2022-09-16T09:27:37.063Z,0.73
2022-09-16T09:30:07.965Z,0.70
2022-09-16T09:32:51.273Z,0.63
2022-09-16T09:35:29.507Z,0.70
2022-09-16T09:38:31.495Z,0.70
2022-09-16T09:41:17.468Z,0.55
2022-09-16T09:43:55.760Z,0.60
2022-09-16T09:46:31.531Z,0.80
2022-09-16T09:49:07.834Z,0.60
2022-09-16T09:52:17.842Z,0.70
2022-09-16T09:54:49.685Z,0.85
2022-09-16T09:57:36.969Z,0.90
2022-09-16T10:00:07.869Z,0.80
2022-09-16T10:02:35.732Z,0.65
2022-09-16T10:05:02.319Z,0.90
2022-09-16T10:07:29.272Z,0.88
2022-09-16T10:10:04.066Z,0.75
2022-09-16T10:12:33.159Z,1.05
2022-09-16T10:15:00.271Z,0.85
2022-09-16T10:17:30.863Z,1.10
2022-09-16T10:20:10.589Z,1.65
2022-09-16T10:22:37.163Z,1.25
2022-09-16T10:25:08.360Z,0.60
2022-09-16T10:27:37.520Z,0.55
2022-09-16T10:30:16.925Z,0.60
2022-09-16T10:32:46.973Z,1.52
2022-09-16T10:35:28.367Z,0.90
2022-09-16T10:37:59.360Z,1.20
2022-09-16T10:40:27.035Z,0.47
2022-09-16T10:43:03.118Z,0.60
2022-09-16T10:45:34.223Z,0.65
2022-09-16T10:48:07.393Z,0.50
2022-09-16T10:50:34.236Z,0.50
2022-09-16T10:53:00.924Z,0.70
2022-09-16T10:55:30.394Z,0.50
2022-09-16T10:58:08.902Z,0.98
2022-09-16T11:00:55.765Z,0.60
2022-09-16T11:03:56.902Z,0.50
2022-09-16T11:06:35.888Z,0.50
2022-09-16T11:09:15.816Z,0.50
2022-09-16T11:12:14.977Z,0.45
2022-09-16T11:15:05.965Z,0.60
2022-09-16T11:17:41.680Z,0.65
2022-09-16T11:20:29.206Z,0.60
2022-09-16T11:23:02.192Z,0.30
2022-09-16T11:25:41.486Z,0.40
2022-09-16T11:28:32.718Z,0.40
2022-09-16T11:31:38.123Z,0.30
2022-09-16T11:34:33.364Z,0.70
2022-09-16T11:37:07.752Z,0.30
2022-09-16T11:40:02.373Z,0.40
2022-09-16T11:42:42.150Z,0.35
2022-09-16T11:45:21.788Z,0.35
2022-09-16T11:48:25.505Z,0.40
2022-09-16T11:51:12.454Z,0.40
2022-09-16T11:53:57.417Z,0.22
2022-09-16T11:56:45.923Z,0.20
2022-09-16T11:59:30.605Z,0.30
2022-09-16T12:02:48.859Z,0.30
2022-09-16T12:05:23.355Z,0.30
2022-09-16T12:08:14.583Z,0.20
2022-09-16T12:10:53.583Z,0.20
2022-09-16T12:13:28.355Z,0.20
2022-09-16T12:16:01.196Z,0.20
2022-09-16T12:18:30.735Z,0.22
2022-09-16T12:21:14.476Z,0.22
2022-09-16T12:23:45.320Z,0.32
2022-09-16T12:26:38.303Z,0.40
2022-09-16T12:29:28.400Z,0.25
2022-09-16T12:32:08.437Z,0.30
2022-09-16T12:34:41.730Z,0.35
2022-09-16T12:37:28.108Z,0.30
2022-09-16T12:39:54.965Z,0.30
2022-09-16T12:42:24.480Z,0.45
2022-09-16T12:45:09.595Z,0.50
2022-09-16T12:48:05.508Z,0.30
2022-09-16T12:50:49.996Z,0.40
2022-09-16T12:53:25.405Z,0.57
2022-09-16T12:56:05.540Z,0.30
2022-09-16T12:59:04.632Z,0.40
2022-09-16T13:01:37.342Z,0.40
2022-09-16T13:04:16.655Z,0.40
2022-09-16T13:06:52.067Z,0.40
2022-09-16T13:09:26.114Z,0.60
2022-09-16T13:14:56.467Z,0.70
2022-09-16T13:17:38.008Z,0.85
2022-09-16T13:20:33.502Z,1.42
2022-09-16T13:23:14.530Z,0.85
2022-09-16T13:25:58.548Z,2.47
2022-09-16T13:28:37.138Z,1.33
2022-09-16T13:31:13.015Z,2.28
2022-09-16T13:33:40.599Z,1.10
2022-09-16T13:36:14.968Z,1.63
2022-09-16T13:38:44.677Z,0.77
2022-09-16T13:41:13.998Z,2.47
2022-09-16T13:43:43.539Z,0.60
2022-09-16T13:46:16.414Z,0.50
2022-09-16T13:49:10.966Z,0.30
2022-09-16T13:51:45.351Z,0.30
2022-09-16T13:55:06.393Z,0.40
2022-09-16T13:57:32.393Z,0.40
2022-09-16T14:00:23.901Z,0.60
2022-09-16T14:03:11.964Z,1.10
2022-09-16T14:05:45.706Z,0.40
2022-09-16T14:08:38.555Z,0.50
2022-09-16T14:11:12.016Z,0.80
2022-09-16T14:13:46.846Z,0.40
2022-09-16T14:16:26.348Z,0.30
2022-09-16T14:19:22.229Z,0.30
2022-09-16T14:22:10.833Z,0.30
2022-09-16T14:24:40.299Z,0.30
2022-09-16T14:27:43.779Z,0.10
2022-09-16T14:30:17.384Z,0.40
2022-09-16T14:32:45.817Z,0.30
2022-09-16T14:35:19.080Z,0.40
2022-09-16T14:37:49.404Z,0.30
2022-09-16T14:40:20.493Z,0.30
2022-09-16T14:43:09.661Z,0.40
2022-09-16T14:45:37.703Z,0.30
2022-09-16T14:48:10.610Z,0.70
2022-09-16T14:50:45.135Z,0.60
2022-09-16T14:54:09.028Z,0.30
2022-09-16T14:56:38.613Z,0.30
2022-09-16T14:59:06.297Z,0.80
2022-09-16T15:01:32.930Z,2.17
2022-09-16T15:04:25.651Z,0.40
2022-09-16T15:07:00.722Z,0.40
2022-09-16T15:09:51.718Z,0.70
2022-09-16T15:12:25.383Z,0.40
2022-09-16T15:14:52.566Z,0.40
2022-09-16T15:17:22.666Z,0.40
2022-09-16T15:19:54.675Z,0.40
2022-09-16T15:22:21.845Z,0.50
2022-09-16T15:24:53.528Z,0.50
2022-09-16T15:27:29.590Z,0.30
2022-09-16T15:29:59.499Z,0.20
2022-09-16T15:32:31.984Z,0.30
2022-09-16T15:35:23.231Z,0.50
2022-09-16T15:37:51.822Z,0.40
2022-09-16T15:40:31.808Z,0.30
2022-09-16T15:43:28.633Z,0.30
2022-09-16T15:46:03.570Z,0.40
2022-09-16T15:48:43.355Z,0.40
2022-09-16T15:51:26.975Z,0.30
2022-09-16T15:54:00.099Z,0.30
2022-09-16T15:56:34.590Z,0.40
2022-09-16T15:59:06.645Z,0.30
2022-09-16T16:01:53.082Z,0.22
2022-09-16T16:04:31.697Z,0.40
2022-09-16T16:07:04.825Z,0.30
2022-09-16T16:09:38.208Z,0.40
2022-09-16T16:12:13.792Z,0.40
2022-09-16T16:14:41.201Z,0.30
2022-09-16T16:17:17.151Z,0.40
2022-09-16T16:19:45.693Z,0.32
2022-09-16T16:22:12.922Z,0.30
2022-09-16T16:24:39.662Z,0.40
2022-09-16T16:27:06.585Z,0.38
2022-09-16T16:29:33.163Z,0.40
2022-09-16T16:32:02.974Z,3.30
2022-09-16T16:34:37.030Z,0.43
2022-09-16T16:37:04.221Z,0.40
2022-09-16T16:39:31.048Z,1.40
2022-09-16T16:41:57.915Z,0.80
2022-09-16T16:44:25.537Z,1.10
2022-09-16T16:46:54.178Z,0.63
2022-09-16T16:49:21.723Z,0.50
2022-09-16T16:51:50.257Z,0.60
2022-09-16T16:54:20.676Z,0.68
2022-09-16T16:56:47.779Z,0.40
2022-09-16T16:59:15.555Z,0.40
2022-09-16T17:01:48.446Z,0.60
2022-09-16T17:04:15.739Z,0.47
2022-09-16T17:06:42.922Z,0.35
2022-09-16T17:09:15.575Z,0.30
2022-09-16T17:11:53.768Z,0.40
2022-09-16T17:14:21.566Z,0.30
2022-09-16T17:16:48.621Z,0.38
2022-09-16T17:19:17.164Z,0.40
2022-09-16T17:21:45.935Z,0.50
2022-09-16T17:24:13.772Z,0.80
2022-09-16T17:26:40.454Z,0.77
2022-09-16T17:29:14.992Z,0.85
2022-09-16T17:31:43.283Z,0.70
2022-09-16T17:34:13.570Z,0.70
2022-09-16T17:36:45.689Z,0.77
2022-09-16T17:39:15.034Z,1.17
2022-09-16T17:41:45.887Z,0.90
2022-09-16T17:44:14.016Z,0.50
2022-09-16T17:46:43.112Z,0.50
2022-09-16T17:49:18.389Z,0.80
2022-09-16T17:51:45.390Z,1.08
2022-09-16T17:54:12.291Z,1.40
2022-09-16T17:56:39.320Z,5.80
2022-09-16T17:59:05.946Z,14.85
2022-09-16T18:01:32.660Z,8.65
2022-09-16T18:03:59.740Z,20.10
2022-09-16T18:06:32.094Z,20.00
2022-09-16T18:09:04.474Z,31.85
2022-09-16T18:11:31.164Z,16.85
2022-09-16T18:14:00.637Z,30.20
2022-09-16T18:16:29.320Z,14.27
2022-09-16T18:18:59.638Z,4.38
2022-09-16T18:21:26.704Z,3.92
2022-09-16T18:23:56.279Z,4.85
2022-09-16T18:26:22.957Z,2.00
2022-09-16T18:29:09.529Z,0.90
2022-09-16T18:31:38.432Z,2.53
2022-09-16T18:34:05.159Z,3.85
2022-09-16T18:36:33.439Z,3.63
2022-09-16T18:39:00.524Z,4.78
2022-09-16T18:41:29.923Z,2.28
2022-09-16T18:44:01.843Z,0.70
2022-09-16T18:46:30.590Z,1.20
2022-09-16T18:48:58.409Z,1.10
2022-09-16T18:51:30.527Z,1.13
2022-09-16T18:54:00.767Z,0.90
2022-09-16T18:56:29.520Z,0.80
2022-09-16T18:59:22.167Z,0.90
2022-09-16T19:01:51.543Z,1.30
2022-09-16T19:04:20.943Z,20.10
2022-09-16T19:06:49.638Z,25.05
2022-09-16T19:09:18.566Z,41.20
2022-09-16T19:11:45.680Z,40.45
2022-09-16T19:14:14.084Z,40.90
2022-09-16T19:16:42.340Z,37.08
2022-09-16T19:19:11.146Z,13.85
2022-09-16T19:21:38.381Z,3.13
2022-09-16T19:24:07.335Z,1.50
2022-09-16T19:26:36.920Z,1.58
2022-09-16T19:29:06.848Z,1.65
2022-09-16T19:31:35.403Z,1.50
2022-09-16T19:34:02.403Z,2.17
2022-09-16T19:36:31.123Z,1.10
2022-09-16T19:38:59.175Z,0.80
2022-09-16T19:41:29.386Z,0.80
2022-09-16T19:44:04.816Z,0.90
2022-09-16T19:46:35.437Z,1.30
2022-09-16T19:49:02.554Z,0.80
2022-09-16T19:51:29.290Z,0.88
2022-09-16T19:53:56.059Z,0.90
2022-09-16T19:56:25.572Z,0.93
2022-09-16T19:58:53.012Z,1.27
2022-09-16T20:01:23.692Z,0.90
2022-09-16T20:03:50.776Z,0.60
2022-09-16T20:06:28.856Z,0.80
2022-09-16T20:08:59.757Z,1.20
2022-09-16T20:11:29.259Z,1.70
2022-09-16T20:14:05.342Z,0.80
2022-09-16T20:16:37.804Z,0.82
2022-09-16T20:19:07.924Z,1.88
2022-09-16T20:21:35.286Z,1.75
2022-09-16T20:24:05.699Z,1.67
2022-09-16T20:26:33.382Z,1.23
2022-09-16T20:29:00.587Z,1.92
2022-09-16T20:31:29.736Z,2.33
2022-09-16T20:33:56.450Z,1.70
2022-09-16T20:36:24.643Z,1.98
2022-09-16T20:38:52.672Z,1.83
2022-09-16T20:41:19.181Z,2.97
2022-09-16T20:43:46.347Z,8.25
2022-09-16T20:46:26.246Z,9.63
2022-09-16T20:48:58.623Z,6.78
2022-09-16T20:51:27.891Z,9.32
2022-09-16T20:53:57.160Z,9.32
2022-09-16T20:56:24.766Z,9.20
2022-09-16T20:58:51.725Z,12.70
2022-09-16T21:01:25.132Z,8.55
2022-09-16T21:04:00.973Z,6.55
2022-09-16T21:06:29.145Z,7.45
2022-09-16T21:08:59.703Z,5.78
2022-09-16T21:11:29.957Z,5.75
2022-09-16T21:13:58.308Z,5.50
2022-09-16T21:16:26.580Z,4.93
2022-09-16T21:18:57.117Z,5.10
2022-09-16T21:21:25.302Z,5.47
2022-09-16T21:23:53.756Z,4.10
2022-09-16T21:26:40.946Z,4.30
2022-09-16T21:29:11.109Z,4.35
2022-09-16T21:31:40.243Z,5.03
2022-09-16T21:34:10.852Z,4.30
2022-09-16T21:36:39.427Z,4.03
2022-09-16T21:39:07.232Z,3.45
2022-09-16T21:41:34.104Z,4.05
2022-09-16T21:44:01.590Z,3.55
2022-09-16T21:46:34.017Z,3.25
2022-09-16T21:49:03.426Z,3.17
2022-09-16T21:51:35.421Z,2.50
2022-09-16T21:54:04.557Z,2.38
2022-09-16T21:56:31.651Z,3.08
2022-09-16T21:58:58.733Z,3.67
2022-09-16T22:01:30.453Z,3.15
2022-09-16T22:04:04.593Z,2.53
2022-09-16T22:06:31.690Z,2.88
2022-09-16T22:09:00.925Z,2.22
2022-09-16T22:11:32.741Z,3.08
2022-09-16T22:14:00.730Z,2.47
2022-09-16T22:16:29.578Z,2.92
2022-09-16T22:19:01.803Z,3.03
2022-09-16T22:21:30.854Z,3.00
2022-09-16T22:23:59.342Z,2.97
2022-09-16T22:26:27.067Z,3.28
2022-09-16T22:28:53.735Z,10.98
2022-09-16T22:31:26.092Z,3.47
2022-09-16T22:33:54.319Z,3.20
2022-09-16T22:36:26.143Z,4.05
2022-09-16T22:38:55.243Z,3.97
2022-09-16T22:41:23.468Z,3.92
2022-09-16T22:43:51.766Z,4.30
2022-09-16T22:46:21.149Z,4.82
2022-09-16T22:48:48.736Z,4.43
2022-09-16T22:51:18.110Z,5.05
2022-09-16T22:53:45.258Z,4.78
2022-09-16T22:56:25.035Z,4.57
2022-09-16T22:58:53.721Z,4.45
2022-09-16T23:01:26.639Z,4.63
2022-09-16T23:03:55.503Z,4.05
2022-09-16T23:06:23.757Z,4.53
2022-09-16T23:08:50.986Z,4.43
2022-09-16T23:11:20.841Z,3.58
2022-09-16T23:13:50.415Z,4.93
2022-09-16T23:16:21.261Z,5.13
2022-09-16T23:18:48.955Z,6.10
2022-09-16T23:21:19.109Z,7.10
2022-09-16T23:23:49.554Z,5.63
2022-09-16T23:26:18.878Z,5.85
2022-09-16T23:28:46.079Z,5.78
2022-09-16T23:31:17.455Z,6.72
2022-09-16T23:33:45.359Z,7.15
2022-09-16T23:36:14.311Z,4.85
2022-09-16T23:38:42.269Z,5.15
2022-09-16T23:41:12.226Z,5.50
2022-09-16T23:43:39.553Z,4.80
2022-09-16T23:46:06.784Z,5.47
2022-09-16T23:48:34.020Z,4.80
2022-09-16T23:51:01.395Z,4.55
2022-09-16T23:53:28.858Z,4.95
2022-09-16T23:55:55.776Z,4.95
2022-09-16T23:58:22.697Z,4.75
